Time;durP1;ratioP1;P1;durP2;ratioP2;P2;SDS_P1;SDS_P2;PMS_P1;PMS_P2;Temp;Humidity;BMP_temperature;BMP_pressure;BME280_temperature;BME280_humidity;BME280_pressure;Samples;Min_cycle;Max_cycle;Signal;HPM_P1;HPM_P2
2023/11/29 00:00:24;;;;;;;45.65;17.70;;;-1.10;80.10;;;;;;4821229;29;20051;-87
2023/11/29 00:02:51;;;;;;;42.95;17.88;;;-0.90;80.00;;;;;;4813740;29;20046;-88
2023/11/29 00:05:19;;;;;;;42.00;15.00;;;-0.90;79.10;;;;;;4813934;29;20455;-87
2023/11/29 00:07:53;;;;;;;43.65;17.00;;;-1.00;78.90;;;;;;4820492;29;20039;-88
2023/11/29 00:10:22;;;;;;;46.50;18.40;;;-1.20;78.90;;;;;;4811814;29;20051;-87
2023/11/29 00:12:49;;;;;;;40.67;15.93;;;-1.20;79.40;;;;;;4833515;29;20488;-87
2023/11/29 00:15:16;;;;;;;44.55;17.60;;;-1.20;79.50;;;;;;4797502;29;20421;-87
2023/11/29 00:17:43;;;;;;;43.75;17.17;;;-1.20;79.30;;;;;;4800644;29;20076;-89
2023/11/29 00:20:11;;;;;;;43.53;17.38;;;-1.20;79.00;;;;;;4816368;29;20676;-88
2023/11/29 00:22:38;;;;;;;47.27;17.70;;;-1.10;79.10;;;;;;4831832;29;20431;-90
2023/11/29 00:25:06;;;;;;;51.40;19.95;;;-1.20;79.00;;;;;;4802205;29;20046;-90
2023/11/29 00:27:33;;;;;;;45.20;18.45;;;-1.10;79.20;;;;;;4812630;29;20059;-89
2023/11/29 00:30:03;;;;;;;47.80;18.95;;;-1.00;79.10;;;;;;4817963;29;20042;-90
2023/11/29 00:32:30;;;;;;;51.35;19.50;;;-0.90;78.80;;;;;;4812389;29;20081;-89
2023/11/29 00:34:57;;;;;;;48.27;17.60;;;-0.90;78.70;;;;;;4801489;29;20039;-87
2023/11/29 00:37:24;;;;;;;48.38;18.85;;;-1.00;78.40;;;;;;4816748;29;20053;-87
2023/11/29 00:39:52;;;;;;;50.05;19.42;;;-1.10;78.90;;;;;;4801501;29;20397;-87
2023/11/29 00:42:18;;;;;;;47.83;19.27;;;-1.10;79.10;;;;;;4813964;29;20078;-86
2023/11/29 00:44:46;;;;;;;46.28;17.98;;;-1.10;78.60;;;;;;4819095;29;20107;-87
2023/11/29 00:47:13;;;;;;;43.67;17.53;;;-1.10;78.90;;;;;;4812957;29;20115;-88
2023/11/29 00:49:41;;;;;;;39.88;15.10;;;-1.20;78.40;;;;;;4815929;29;20059;-87
2023/11/29 00:52:09;;;;;;;38.42;15.93;;;-1.20;78.60;;;;;;4820318;29;20047;-88
2023/11/29 00:54:36;;;;;;;41.47;14.95;;;-1.30;78.40;;;;;;4828066;29;20053;-88
2023/11/29 00:57:03;;;;;;;45.70;17.67;;;-1.30;78.80;;;;;;4802087;29;20062;-88
2023/11/29 00:59:30;;;;;;;44.10;17.43;;;-1.30;78.60;;;;;;4817402;29;20039;-88
2023/11/29 01:01:57;;;;;;;46.55;16.85;;;-1.30;78.80;;;;;;4818404;29;20065;-88
2023/11/29 01:04:24;;;;;;;46.08;17.80;;;-1.30;78.90;;;;;;4821696;29;20082;-88
2023/11/29 01:06:51;;;;;;;45.05;16.73;;;-1.20;78.80;;;;;;4817482;29;20050;-88
2023/11/29 01:09:19;;;;;;;48.42;18.88;;;-1.20;78.50;;;;;;4818780;29;20106;-89
2023/11/29 01:11:46;;;;;;;44.60;16.83;;;-1.20;78.70;;;;;;4820664;29;20624;-89
2023/11/29 01:14:13;;;;;;;42.78;17.60;;;-1.10;78.60;;;;;;4822806;29;20046;-88
2023/11/29 01:16:40;;;;;;;44.08;16.98;;;-1.10;78.00;;;;;;4801636;29;20691;-88
2023/11/29 01:19:07;;;;;;;38.05;15.68;;;-1.00;77.90;;;;;;4820134;29;20046;-88
2023/11/29 01:21:38;;;;;;;48.03;17.95;;;-1.00;77.10;;;;;;4816939;29;20046;-88
2023/11/29 01:24:05;;;;;;;40.07;16.27;;;-1.10;77.40;;;;;;4828095;29;20047;-88
2023/11/29 01:26:34;;;;;;;46.90;17.95;;;-1.20;77.20;;;;;;4813318;29;20038;-88
2023/11/29 01:29:01;;;;;;;43.45;16.73;;;-1.30;77.90;;;;;;4810349;29;20047;-88
2023/11/29 01:31:28;;;;;;;40.55;14.02;;;-1.30;77.80;;;;;;4818691;29;20043;-88
2023/11/29 01:33:57;;;;;;;41.72;16.40;;;-1.40;77.50;;;;;;4821808;29;20095;-88
2023/11/29 01:36:24;;;;;;;42.67;18.37;;;-1.50;78.10;;;;;;4816124;29;20501;-87
2023/11/29 01:38:51;;;;;;;44.08;18.25;;;-1.40;78.30;;;;;;4820067;29;20057;-88
2023/11/29 01:41:19;;;;;;;44.13;16.73;;;-1.20;77.90;;;;;;4814800;29;20130;-88
2023/11/29 01:43:46;;;;;;;46.50;17.50;;;-1.20;77.70;;;;;;4796460;29;20379;-88
2023/11/29 01:46:14;;;;;;;44.53;19.65;;;-1.20;77.10;;;;;;4821173;29;20050;-88
2023/11/29 01:48:41;;;;;;;42.63;16.60;;;-1.10;77.20;;;;;;4819144;29;20054;-88
2023/11/29 01:51:09;;;;;;;47.92;18.33;;;-1.10;77.10;;;;;;4799510;29;20058;-88
2023/11/29 01:53:37;;;;;;;44.40;16.85;;;-1.00;77.00;;;;;;4819287;29;20054;-88
2023/11/29 01:56:07;;;;;;;45.58;15.98;;;-1.00;76.30;;;;;;4805246;29;20050;-88
2023/11/29 01:58:34;;;;;;;40.30;15.35;;;-1.00;76.20;;;;;;4817018;29;20079;-88
2023/11/29 02:01:01;;;;;;;41.43;16.50;;;-1.00;76.10;;;;;;4803345;29;20521;-89
2023/11/29 02:03:28;;;;;;;43.20;17.23;;;-1.00;76.00;;;;;;4806260;29;20043;-88
2023/11/29 02:05:56;;;;;;;43.92;17.67;;;-1.00;75.70;;;;;;4804231;29;20062;-88
2023/11/29 02:08:24;;;;;;;48.72;18.13;;;-1.10;76.00;;;;;;4814771;29;20043;-88
2023/11/29 02:10:51;;;;;;;42.22;17.00;;;-1.00;76.00;;;;;;4822109;29;20057;-88
2023/11/29 02:13:19;;;;;;;46.57;17.67;;;-1.00;75.70;;;;;;4809309;29;20061;-89
2023/11/29 02:15:46;;;;;;;38.78;16.75;;;-1.10;75.60;;;;;;4815259;29;20050;-88
2023/11/29 02:18:13;;;;;;;43.97;16.00;;;-1.20;75.80;;;;;;4818945;29;20042;-89
2023/11/29 02:20:42;;;;;;;40.65;16.63;;;-1.10;75.90;;;;;;4797036;29;20081;-89
2023/11/29 02:23:22;;;;;;;43.15;17.13;;;-1.00;75.90;;;;;;4825810;29;20050;-90
2023/11/29 02:25:50;;;;;;;45.77;16.97;;;-1.00;75.80;;;;;;4815342;29;20047;-89
2023/11/29 02:28:17;;;;;;;44.63;16.25;;;-0.90;75.70;;;;;;4816836;29;20047;-89
2023/11/29 02:30:44;;;;;;;45.30;15.70;;;-0.80;75.50;;;;;;4804013;29;20047;-89
2023/11/29 02:33:12;;;;;;;46.17;17.42;;;-0.60;75.30;;;;;;4812691;29;20088;-90
2023/11/29 02:35:39;;;;;;;46.92;18.35;;;-0.50;75.00;;;;;;4812368;29;20043;-89
2023/11/29 02:38:06;;;;;;;47.73;17.80;;;-0.50;74.40;;;;;;4806040;29;20047;-90
2023/11/29 02:40:33;;;;;;;45.88;17.33;;;-0.50;74.40;;;;;;4811605;29;20146;-89
2023/11/29 02:43:01;;;;;;;47.38;17.75;;;-0.50;74.50;;;;;;4811241;29;20050;-89
2023/11/29 02:45:28;;;;;;;44.08;16.95;;;-0.50;74.60;;;;;;4797447;29;20052;-88
2023/11/29 02:47:55;;;;;;;40.40;17.08;;;-0.50;74.20;;;;;;4815622;29;20043;-88
2023/11/29 02:50:22;;;;;;;48.53;17.97;;;-0.60;74.40;;;;;;4819549;29;20074;-88
2023/11/29 02:52:50;;;;;;;51.50;18.52;;;-0.80;74.30;;;;;;4820590;29;20409;-88
2023/11/29 02:55:17;;;;;;;44.75;17.83;;;-0.80;75.00;;;;;;4817314;29;20054;-88
2023/11/29 02:57:45;;;;;;;47.38;18.85;;;-0.80;74.80;;;;;;4817898;29;20082;-88
2023/11/29 03:00:12;;;;;;;45.08;16.73;;;-0.80;74.40;;;;;;4789819;29;20062;-87
2023/11/29 03:02:40;;;;;;;53.27;18.23;;;-0.70;74.40;;;;;;4813158;29;20047;-89
2023/11/29 03:05:07;;;;;;;53.22;20.70;;;-0.70;74.70;;;;;;4806130;29;20058;-88
2023/11/29 03:07:34;;;;;;;54.15;21.08;;;-0.80;75.00;;;;;;4815627;29;20035;-88
2023/11/29 03:10:01;;;;;;;52.35;20.65;;;-0.80;75.50;;;;;;4806416;29;20042;-89
2023/11/29 03:12:28;;;;;;;56.17;20.75;;;-0.80;75.60;;;;;;4824614;29;20558;-89
2023/11/29 03:14:55;;;;;;;52.10;21.17;;;-0.80;75.50;;;;;;4799604;29;20057;-88
2023/11/29 03:17:23;;;;;;;53.53;20.08;;;-0.90;75.20;;;;;;4818063;29;20051;-88
2023/11/29 03:19:50;;;;;;;54.72;18.70;;;-0.80;75.40;;;;;;4798888;29;20077;-89
2023/11/29 03:22:17;;;;;;;56.60;21.17;;;-0.80;75.30;;;;;;4819038;29;20050;-88
2023/11/29 03:24:47;;;;;;;55.03;19.63;;;-0.90;75.20;;;;;;4797490;29;20097;-88
2023/11/29 03:27:18;;;;;;;52.43;19.30;;;-0.90;75.40;;;;;;4823118;29;20599;-88
2023/11/29 03:29:46;;;;;;;52.65;20.35;;;-0.90;75.40;;;;;;4809598;29;20096;-88
2023/11/29 03:32:13;;;;;;;51.83;19.63;;;-0.90;75.30;;;;;;4823334;29;20052;-88
2023/11/29 03:34:40;;;;;;;49.50;18.77;;;-1.10;75.30;;;;;;4817817;29;20505;-88
2023/11/29 03:37:07;;;;;;;47.80;18.52;;;-1.20;75.30;;;;;;4823443;29;20065;-88
2023/11/29 03:39:34;;;;;;;47.80;18.53;;;-1.20;75.70;;;;;;4823011;29;20129;-88
2023/11/29 03:42:02;;;;;;;52.50;18.42;;;-1.20;75.60;;;;;;4834328;29;20054;-89
2023/11/29 03:44:29;;;;;;;50.30;18.98;;;-1.20;75.30;;;;;;4817281;29;20050;-89
2023/11/29 03:46:56;;;;;;;52.03;19.05;;;-1.20;75.30;;;;;;4820574;29;20075;-86
2023/11/29 03:49:25;;;;;;;50.67;19.05;;;-1.10;75.50;;;;;;4809605;29;20512;-88
2023/11/29 03:51:52;;;;;;;44.80;17.03;;;-1.10;75.10;;;;;;4821951;29;20414;-88
2023/11/29 03:54:21;;;;;;;51.53;18.02;;;-1.10;74.80;;;;;;4819730;29;20596;-88
2023/11/29 03:56:48;;;;;;;47.08;16.48;;;-1.20;74.90;;;;;;4821287;29;20050;-87
2023/11/29 03:59:15;;;;;;;44.42;16.58;;;-1.10;74.80;;;;;;4817180;29;20137;-88
2023/11/29 04:01:42;;;;;;;39.60;14.80;;;-1.10;74.30;;;;;;4821356;29;20125;-88
2023/11/29 04:04:09;;;;;;;47.33;17.37;;;-1.20;74.10;;;;;;4805723;29;20129;-88
2023/11/29 04:06:37;;;;;;;46.20;17.42;;;-1.30;74.50;;;;;;4820783;29;20130;-88
2023/11/29 04:09:04;;;;;;;48.53;17.88;;;-1.30;74.60;;;;;;4814887;29;20398;-88
2023/11/29 04:11:31;;;;;;;52.15;18.85;;;-1.40;74.80;;;;;;4802078;29;20401;-88
2023/11/29 04:13:58;;;;;;;50.05;18.58;;;-1.30;75.10;;;;;;4797223;29;20062;-88
2023/11/29 04:16:27;;;;;;;45.23;17.83;;;-1.40;75.30;;;;;;4814344;29;20647;-88
2023/11/29 04:18:55;;;;;;;50.78;18.58;;;-1.40;75.80;;;;;;4796846;29;20042;-88
2023/11/29 04:21:31;;;;;;;47.83;16.73;;;-1.50;76.00;;;;;;4820455;29;20046;-88
2023/11/29 04:23:58;;;;;;;44.00;16.70;;;-1.60;76.10;;;;;;4806299;29;20423;-88
2023/11/29 04:26:35;;;;;;;42.53;15.88;;;-1.70;76.20;;;;;;4819019;29;20065;-88
2023/11/29 04:29:05;;;;;;;40.27;14.33;;;-1.70;76.50;;;;;;4813267;29;20501;-88
2023/11/29 04:31:33;;;;;;;41.85;16.60;;;-1.80;76.60;;;;;;4826182;29;20424;-88
2023/11/29 04:34:00;;;;;;;45.08;16.48;;;-1.80;76.30;;;;;;4811423;29;20438;-89
2023/11/29 04:36:44;;;;;;;39.50;15.05;;;-1.80;76.50;;;;;;4807390;29;20437;-88
2023/11/29 04:39:15;;;;;;;42.05;15.07;;;-1.90;76.40;;;;;;4818751;29;20058;-88
2023/11/29 04:41:42;;;;;;;39.40;15.53;;;-1.80;76.40;;;;;;4817594;29;20107;-88
2023/11/29 04:44:10;;;;;;;44.80;14.35;;;-1.70;76.40;;;;;;4813959;29;20054;-88
2023/11/29 04:46:37;;;;;;;37.75;14.88;;;-1.60;76.00;;;;;;4812793;29;20057;-89
2023/11/29 04:49:05;;;;;;;39.10;14.60;;;-1.60;75.80;;;;;;4802783;29;20053;-89
2023/11/29 04:51:32;;;;;;;39.00;15.13;;;-1.50;75.30;;;;;;4821905;29;20038;-92
2023/11/29 04:53:59;;;;;;;39.03;14.30;;;-1.60;74.70;;;;;;4817457;29;20050;-89
2023/11/29 04:56:26;;;;;;;39.33;14.75;;;-1.50;74.70;;;;;;4818865;29;20055;-90
2023/11/29 04:58:55;;;;;;;35.03;14.50;;;-1.50;74.40;;;;;;4832022;29;20047;-89
2023/11/29 05:01:22;;;;;;;36.88;13.90;;;-1.60;74.20;;;;;;4818664;29;20059;-90
2023/11/29 05:03:49;;;;;;;37.25;14.15;;;-1.70;74.40;;;;;;4828325;29;20050;-90
2023/11/29 05:06:16;;;;;;;40.40;15.13;;;-1.70;74.20;;;;;;4822500;29;20061;-91
2023/11/29 05:08:43;;;;;;;34.40;13.73;;;-1.90;74.40;;;;;;4815769;29;20077;-91
2023/11/29 05:11:11;;;;;;;28.45;11.00;;;-2.00;74.30;;;;;;4815499;29;20057;-89
2023/11/29 05:13:38;;;;;;;29.60;11.27;;;-2.00;74.40;;;;;;4815758;29;20046;-89
2023/11/29 05:16:05;;;;;;;35.15;12.52;;;-2.10;74.70;;;;;;4814237;29;20553;-89
2023/11/29 05:18:32;;;;;;;35.17;12.40;;;-2.00;74.70;;;;;;4814136;29;20050;-90
2023/11/29 05:21:00;;;;;;;37.60;12.50;;;-2.00;74.60;;;;;;4796592;29;20429;-89
2023/11/29 05:23:29;;;;;;;36.83;13.25;;;-2.00;73.80;;;;;;4793175;29;20050;-89
2023/11/29 05:25:59;;;;;;;32.47;12.95;;;-2.00;73.70;;;;;;4801821;29;20050;-90
2023/11/29 05:28:29;;;;;;;32.97;12.05;;;-2.00;73.80;;;;;;4796724;29;20047;-89
2023/11/29 05:30:56;;;;;;;29.93;11.87;;;-1.90;73.50;;;;;;4815891;29;20096;-89
2023/11/29 05:33:23;;;;;;;30.50;11.48;;;-2.00;73.10;;;;;;4814234;29;20064;-89
2023/11/29 05:35:53;;;;;;;30.02;11.95;;;-1.90;73.20;;;;;;4813473;29;20049;-89
2023/11/29 05:38:20;;;;;;;28.77;11.93;;;-1.90;72.90;;;;;;4813768;29;20402;-89
2023/11/29 05:40:47;;;;;;;32.88;12.60;;;-1.90;72.70;;;;;;4807771;29;20042;-88
2023/11/29 05:43:14;;;;;;;28.00;10.37;;;-1.90;72.40;;;;;;4818686;29;20046;-91
2023/11/29 05:45:41;;;;;;;32.05;10.80;;;-1.90;72.40;;;;;;4819755;29;20431;-88
2023/11/29 05:48:08;;;;;;;31.70;11.85;;;-2.00;72.00;;;;;;4814271;29;20053;-88
2023/11/29 05:50:35;;;;;;;29.02;11.10;;;-2.00;72.50;;;;;;4795790;29;20542;-89
2023/11/29 05:53:03;;;;;;;36.00;13.23;;;-1.90;72.70;;;;;;4817762;29;20050;-88
2023/11/29 05:55:31;;;;;;;29.50;11.40;;;-2.00;72.50;;;;;;4812692;29;20046;-89
2023/11/29 05:57:58;;;;;;;28.27;11.05;;;-1.90;72.60;;;;;;4816167;29;20051;-89
2023/11/29 06:00:25;;;;;;;31.73;12.40;;;-2.00;72.40;;;;;;4814173;29;20075;-90
2023/11/29 06:02:58;;;;;;;31.50;12.45;;;-2.00;72.40;;;;;;4820839;29;20061;-90
2023/11/29 06:05:28;;;;;;;34.90;12.02;;;-1.90;72.50;;;;;;4814687;29;20058;-89
2023/11/29 06:07:56;;;;;;;29.30;11.53;;;-2.00;72.30;;;;;;4819566;29;20107;-90
2023/11/29 06:10:24;;;;;;;32.72;11.70;;;-1.90;72.80;;;;;;4796955;29;20095;-89
2023/11/29 06:12:52;;;;;;;31.52;11.75;;;-1.90;72.40;;;;;;4816691;29;20739;-89
2023/11/29 06:15:19;;;;;;;35.08;12.52;;;-2.00;71.90;;;;;;4802080;29;20054;-90
2023/11/29 06:17:47;;;;;;;32.75;12.43;;;-1.90;71.90;;;;;;4813426;29;20046;-90
2023/11/29 06:20:18;;;;;;;33.13;13.17;;;-1.90;72.00;;;;;;4796721;29;20413;-90
2023/11/29 06:22:45;;;;;;;29.67;11.50;;;-2.00;72.20;;;;;;4813420;29;20047;-89
2023/11/29 06:25:13;;;;;;;27.48;11.07;;;-1.90;71.90;;;;;;4798429;29;20301;-90
2023/11/29 06:27:40;;;;;;;30.42;11.60;;;-1.90;71.70;;;;;;4815353;29;20069;-89
2023/11/29 06:30:07;;;;;;;31.30;11.45;;;-1.90;71.50;;;;;;4816656;29;20042;-90
2023/11/29 06:32:36;;;;;;;31.47;10.93;;;-1.80;71.80;;;;;;4813152;29;20058;-90
2023/11/29 06:35:04;;;;;;;32.63;12.10;;;-1.70;71.60;;;;;;4816263;29;20055;-90
2023/11/29 06:37:33;;;;;;;27.55;11.20;;;-1.70;71.20;;;;;;4818376;29;20051;-90
2023/11/29 06:40:02;;;;;;;28.15;11.13;;;-1.70;71.40;;;;;;4820300;29;20050;-90
2023/11/29 06:42:30;;;;;;;31.23;11.65;;;-1.60;71.40;;;;;;4815923;29;20644;-90
2023/11/29 06:44:57;;;;;;;37.03;14.30;;;-1.60;71.50;;;;;;4815444;29;20047;-89
2023/11/29 06:47:24;;;;;;;50.65;18.98;;;-1.50;71.20;;;;;;4800098;29;20483;-89
2023/11/29 06:49:51;;;;;;;29.15;11.82;;;-1.40;71.10;;;;;;4814060;29;20063;-90
2023/11/29 06:52:19;;;;;;;27.85;10.50;;;-1.40;70.70;;;;;;4819947;29;20119;-91
2023/11/29 06:54:46;;;;;;;28.58;10.90;;;-1.50;70.60;;;;;;4822825;29;20058;-90
2023/11/29 06:57:13;;;;;;;34.20;11.23;;;-1.50;70.90;;;;;;4824713;29;20055;-90
2023/11/29 06:59:40;;;;;;;30.02;11.82;;;-1.50;70.80;;;;;;4801918;29;20058;-95
2023/11/29 07:02:07;;;;;;;29.30;10.88;;;-1.50;71.00;;;;;;4806315;29;20141;-92
2023/11/29 07:04:35;;;;;;;35.60;13.50;;;-1.40;71.10;;;;;;4824428;29;20562;-92
2023/11/29 07:07:06;;;;;;;48.55;18.33;;;-1.40;71.20;;;;;;4815105;29;20108;-91
2023/11/29 07:09:33;;;;;;;24.23;10.40;;;-1.40;71.30;;;;;;4821478;29;20107;-92
2023/11/29 07:12:01;;;;;;;31.38;11.75;;;-1.40;71.10;;;;;;4818500;29;20038;-92
2023/11/29 07:14:28;;;;;;;31.88;10.77;;;-1.40;71.10;;;;;;4822563;29;20069;-92
2023/11/29 07:16:55;;;;;;;27.92;11.07;;;-1.30;71.40;;;;;;4834039;29;20111;-92
2023/11/29 07:19:22;;;;;;;29.05;11.35;;;-1.30;71.10;;;;;;4800139;29;20055;-91
2023/11/29 07:21:49;;;;;;;26.57;11.23;;;-1.20;71.20;;;;;;4818771;29;20065;-91
2023/11/29 07:24:16;;;;;;;30.17;12.18;;;-1.20;71.30;;;;;;4821042;29;20062;-91
2023/11/29 07:26:43;;;;;;;23.60;10.02;;;-1.10;71.40;;;;;;4817776;29;20047;-91
2023/11/29 07:29:10;;;;;;;17.92;7.30;;;-1.20;71.20;;;;;;4806026;29;20055;-91
2023/11/29 07:31:37;;;;;;;18.55;7.57;;;-1.40;71.40;;;;;;4846246;29;20057;-91
2023/11/29 07:34:07;;;;;;;18.90;6.47;;;-1.50;71.70;;;;;;4828836;29;20110;-91
2023/11/29 07:36:34;;;;;;;24.40;7.45;;;-1.50;72.40;;;;;;4822155;29;20055;-91
2023/11/29 07:39:01;;;;;;;16.63;6.22;;;-1.50;72.30;;;;;;4816590;29;20055;-91
2023/11/29 07:41:28;;;;;;;16.23;5.80;;;-1.50;72.10;;;;;;4819322;29;20048;-92
2023/11/29 07:43:55;;;;;;;17.58;5.68;;;-1.40;71.70;;;;;;4830007;29;20057;-90
2023/11/29 07:46:22;;;;;;;16.43;6.50;;;-1.50;71.10;;;;;;4820155;29;20108;-90
2023/11/29 07:48:50;;;;;;;15.55;6.43;;;-1.50;70.90;;;;;;4823494;29;20054;-90
2023/11/29 07:51:16;;;;;;;17.75;6.45;;;-1.40;70.90;;;;;;4824173;29;20050;-91
2023/11/29 07:53:44;;;;;;;18.77;6.50;;;-1.40;71.20;;;;;;4829344;29;20109;-91
2023/11/29 07:56:12;;;;;;;18.02;5.93;;;-1.40;71.80;;;;;;4846888;29;20046;-90
2023/11/29 07:58:39;;;;;;;16.23;6.23;;;-1.30;71.70;;;;;;4834330;29;20046;-91
2023/11/29 08:01:07;;;;;;;16.05;5.63;;;-1.30;71.60;;;;;;4821947;29;20505;-91
2023/11/29 08:03:35;;;;;;;17.55;6.70;;;-1.10;70.80;;;;;;4834633;29;20107;-91
2023/11/29 08:06:03;;;;;;;15.80;6.75;;;-1.10;71.10;;;;;;4830504;29;20398;-91
2023/11/29 08:08:31;;;;;;;20.23;6.68;;;-1.00;71.20;;;;;;4816121;29;20109;-91
2023/11/29 08:10:58;;;;;;;17.60;6.33;;;-1.00;70.90;;;;;;4846599;29;20038;-91
2023/11/29 08:13:26;;;;;;;18.95;7.10;;;-0.80;70.50;;;;;;4814829;29;20099;-91
2023/11/29 08:15:56;;;;;;;17.25;8.20;;;-0.90;69.90;;;;;;4829231;29;20054;-91
2023/11/29 08:18:24;;;;;;;18.27;6.65;;;-0.90;69.70;;;;;;4849032;29;20054;-90
2023/11/29 08:20:51;;;;;;;15.90;6.13;;;-0.90;69.80;;;;;;4802972;29;20532;-90
2023/11/29 08:23:19;;;;;;;15.00;5.83;;;-0.90;69.10;;;;;;4829162;29;20054;-91
2023/11/29 08:25:46;;;;;;;17.77;6.22;;;-1.00;69.00;;;;;;4844378;29;20557;-92
2023/11/29 08:28:14;;;;;;;18.55;6.97;;;-0.90;68.80;;;;;;4833873;29;20137;-91
2023/11/29 08:30:41;;;;;;;19.80;7.00;;;-0.80;68.80;;;;;;4799397;29;20045;-91
2023/11/29 08:33:08;;;;;;;19.48;7.28;;;-0.80;69.00;;;;;;4813394;29;20043;-91
2023/11/29 08:35:37;;;;;;;19.83;8.63;;;-0.80;68.80;;;;;;4822675;29;20046;-91
2023/11/29 08:38:04;;;;;;;18.15;7.13;;;-0.70;69.30;;;;;;4818342;29;20050;-90
2023/11/29 08:40:31;;;;;;;20.17;7.75;;;-0.80;69.00;;;;;;4831663;29;20425;-91
2023/11/29 08:42:58;;;;;;;22.50;8.07;;;-0.70;69.30;;;;;;4815614;29;20054;-91
2023/11/29 08:45:30;;;;;;;22.98;9.18;;;-0.70;68.90;;;;;;4816267;29;20138;-91
2023/11/29 08:47:57;;;;;;;25.03;9.57;;;-0.70;69.20;;;;;;4831084;29;20053;-91
2023/11/29 08:50:27;;;;;;;27.27;11.20;;;-0.70;68.60;;;;;;4833392;29;20078;-91
2023/11/29 08:52:54;;;;;;;33.50;12.15;;;-0.50;68.40;;;;;;4816573;29;20493;-91
2023/11/29 08:55:21;;;;;;;36.85;12.88;;;-0.50;68.50;;;;;;4817825;29;20046;-91
2023/11/29 08:57:49;;;;;;;30.77;11.55;;;-0.50;68.50;;;;;;4815757;29;20054;-91
2023/11/29 09:00:21;;;;;;;31.53;11.90;;;-0.60;68.60;;;;;;4832256;29;20577;-91
2023/11/29 09:02:48;;;;;;;26.90;10.63;;;-0.50;68.50;;;;;;4817360;29;20099;-91
2023/11/29 09:05:18;;;;;;;30.27;11.77;;;-0.60;68.10;;;;;;4799522;29;20572;-90
2023/11/29 09:07:47;;;;;;;28.40;11.23;;;-0.70;67.60;;;;;;4823704;29;20054;-90
2023/11/29 09:10:15;;;;;;;25.83;10.52;;;-0.70;67.50;;;;;;4816259;29;20047;-91
2023/11/29 09:12:42;;;;;;;25.30;9.57;;;-0.80;68.10;;;;;;4817817;29;20046;-90
2023/11/29 09:15:09;;;;;;;31.40;11.75;;;-0.80;68.20;;;;;;4829490;29;20133;-90
2023/11/29 09:17:40;;;;;;;27.33;11.00;;;-0.80;68.40;;;;;;4799542;29;20057;-90
2023/11/29 09:20:08;;;;;;;32.63;11.52;;;-0.60;68.00;;;;;;4814920;29;20660;-91
2023/11/29 09:22:35;;;;;;;33.38;12.40;;;-0.40;67.40;;;;;;4816719;29;20051;-91
2023/11/29 09:25:02;;;;;;;27.87;12.23;;;-0.20;66.90;;;;;;4821457;29;20054;-91
2023/11/29 09:27:32;;;;;;;31.75;12.90;;;0.00;66.20;;;;;;4817850;29;20054;-91
2023/11/29 09:30:00;;;;;;;33.22;13.15;;;0.00;65.80;;;;;;4819009;29;20046;-90
2023/11/29 09:32:27;;;;;;;31.27;14.02;;;-0.10;66.20;;;;;;4813463;29;20444;-90
2023/11/29 09:34:55;;;;;;;31.70;12.73;;;-0.20;66.20;;;;;;4814472;29;20046;-91
2023/11/29 09:37:22;;;;;;;33.90;12.43;;;-0.10;66.00;;;;;;4820577;29;20093;-90
2023/11/29 09:39:49;;;;;;;32.97;12.30;;;-0.20;66.20;;;;;;4814993;29;20103;-91
2023/11/29 09:42:19;;;;;;;30.48;13.45;;;0.00;65.60;;;;;;4820998;29;20106;-91
2023/11/29 09:44:48;;;;;;;30.92;12.18;;;0.00;65.70;;;;;;4815937;29;20078;-91
2023/11/29 09:47:15;;;;;;;29.42;11.95;;;0.00;65.40;;;;;;4820398;29;20042;-91
2023/11/29 09:49:43;;;;;;;30.23;11.87;;;0.00;65.60;;;;;;4808051;29;20043;-90
2023/11/29 09:52:11;;;;;;;34.47;14.10;;;0.00;65.50;;;;;;4813464;29;20050;-91
2023/11/29 09:54:39;;;;;;;30.25;11.57;;;0.00;65.90;;;;;;4812928;29;20043;-90
2023/11/29 09:57:06;;;;;;;34.80;12.75;;;0.10;65.40;;;;;;4822919;29;20082;-90
2023/11/29 09:59:33;;;;;;;32.30;13.07;;;0.20;65.50;;;;;;4818642;29;20110;-90
2023/11/29 10:02:05;;;;;;;28.80;10.90;;;0.10;65.70;;;;;;4814868;29;20050;-90
2023/11/29 10:04:39;;;;;;;31.48;11.93;;;0.00;65.40;;;;;;4815752;29;20516;-90
2023/11/29 10:07:08;;;;;;;27.23;11.88;;;0.00;65.70;;;;;;4811455;29;20063;-91
2023/11/29 10:09:39;;;;;;;19.60;8.52;;;0.00;65.10;;;;;;4816054;29;20051;-90
2023/11/29 10:12:08;;;;;;;22.85;7.78;;;0.00;63.90;;;;;;4812974;29;20046;-91
2023/11/29 10:14:42;;;;;;;21.63;8.87;;;0.00;64.20;;;;;;4813861;29;20050;-90
2023/11/29 10:17:14;;;;;;;22.75;9.32;;;0.00;64.20;;;;;;4827065;29;20085;-91
2023/11/29 10:19:42;;;;;;;22.33;8.30;;;0.00;64.00;;;;;;4821758;29;20131;-90
2023/11/29 10:22:09;;;;;;;27.25;9.70;;;0.00;64.40;;;;;;4842920;29;20051;-90
2023/11/29 10:24:36;;;;;;;24.88;10.00;;;0.00;65.50;;;;;;4814655;29;20391;-90
2023/11/29 10:27:05;;;;;;;29.17;10.77;;;0.00;65.00;;;;;;4822202;29;20115;-90
2023/11/29 10:29:34;;;;;;;31.63;12.27;;;0.00;65.30;;;;;;4816853;29;20047;-91
2023/11/29 10:32:08;;;;;;;44.65;17.17;;;0.00;65.40;;;;;;4822618;29;20046;-91
2023/11/29 10:34:36;;;;;;;37.63;15.25;;;0.00;65.40;;;;;;4811492;29;20516;-91
2023/11/29 10:37:05;;;;;;;28.70;12.38;;;0.00;66.00;;;;;;4817215;29;20409;-91
2023/11/29 10:39:33;;;;;;;27.93;12.40;;;0.00;66.30;;;;;;4818191;29;20046;-92
2023/11/29 10:42:04;;;;;;;31.02;12.40;;;0.10;65.80;;;;;;4819159;29;20046;-91
2023/11/29 10:44:36;;;;;;;34.25;13.98;;;0.10;65.40;;;;;;4814846;29;20052;-92
2023/11/29 10:47:16;;;;;;;32.22;14.13;;;0.20;65.40;;;;;;4836649;29;20046;-91
2023/11/29 10:50:00;;;;;;;34.17;14.30;;;0.40;65.10;;;;;;4810092;29;20054;-91
2023/11/29 10:52:27;;;;;;;30.97;12.37;;;0.20;64.80;;;;;;4818565;29;20046;-91
2023/11/29 10:54:55;;;;;;;29.02;10.80;;;0.20;65.40;;;;;;4818617;29;20043;-90
2023/11/29 10:57:32;;;;;;;30.42;12.60;;;0.40;65.20;;;;;;4823193;29;20054;-90
2023/11/29 11:00:09;;;;;;;31.35;11.95;;;0.40;64.90;;;;;;4819648;29;20133;-91
2023/11/29 11:02:36;;;;;;;33.38;12.77;;;0.30;65.00;;;;;;4816693;29;20050;-91
2023/11/29 11:05:07;;;;;;;30.63;12.17;;;0.20;65.50;;;;;;4802090;29;20054;-91
2023/11/29 11:07:44;;;;;;;34.85;11.85;;;0.10;64.80;;;;;;4803704;29;20065;-91
2023/11/29 11:10:21;;;;;;;24.50;9.48;;;0.10;65.90;;;;;;4825485;29;20082;-92
2023/11/29 11:12:48;;;;;;;30.80;12.15;;;0.00;65.60;;;;;;4833291;29;20129;-91
2023/11/29 11:15:24;;;;;;;26.23;11.80;;;0.10;65.60;;;;;;4818266;29;20133;-91
2023/11/29 11:18:10;;;;;;;27.47;11.13;;;0.10;65.20;;;;;;4824904;29;20129;-91
2023/11/29 11:20:42;;;;;;;27.55;11.60;;;0.10;65.80;;;;;;4816710;29;20053;-91
2023/11/29 11:23:23;;;;;;;30.20;13.10;;;0.20;65.50;;;;;;4821881;29;20047;-91
2023/11/29 11:26:11;;;;;;;31.02;11.38;;;0.30;65.80;;;;;;4814122;29;20058;-91
2023/11/29 11:28:39;;;;;;;31.98;12.75;;;0.20;65.10;;;;;;4820100;29;20054;-91
2023/11/29 11:31:08;;;;;;;32.27;12.30;;;0.30;65.40;;;;;;4821425;29;20054;-91
2023/11/29 11:34:07;;;;;;;27.98;11.65;;;0.40;65.30;;;;;;4818135;29;20063;-89
2023/11/29 11:36:37;;;;;;;26.50;10.52;;;0.30;65.20;;;;;;4776367;29;20429;-90
2023/11/29 11:39:04;;;;;;;29.67;11.80;;;0.30;65.40;;;;;;4818933;29;20061;-91
2023/11/29 11:41:33;;;;;;;27.00;10.30;;;0.20;65.50;;;;;;4812210;29;20421;-90
2023/11/29 11:44:00;;;;;;;28.80;11.47;;;0.10;65.50;;;;;;4822314;29;20106;-91
2023/11/29 11:46:27;;;;;;;26.25;10.60;;;0.00;66.10;;;;;;4824647;29;20088;-90
2023/11/29 11:48:54;;;;;;;25.23;10.52;;;0.00;65.90;;;;;;4821144;29;20099;-90
2023/11/29 11:51:22;;;;;;;27.42;10.43;;;0.00;66.50;;;;;;4797102;29;20405;-90
2023/11/29 11:53:50;;;;;;;24.67;10.27;;;0.10;66.40;;;;;;4816905;29;20054;-90
2023/11/29 11:56:21;;;;;;;29.63;11.20;;;0.20;65.60;;;;;;4820997;29;20500;-91
2023/11/29 11:58:49;;;;;;;25.80;10.27;;;0.40;66.10;;;;;;4814418;29;20073;-92
2023/11/29 12:01:17;;;;;;;24.88;11.00;;;0.50;64.80;;;;;;4801579;29;20051;-92
2023/11/29 12:03:48;;;;;;;26.35;10.38;;;0.50;65.30;;;;;;4822310;29;20055;-91
2023/11/29 12:06:16;;;;;;;26.23;10.15;;;0.60;64.70;;;;;;4821083;29;20116;-91
2023/11/29 12:08:43;;;;;;;25.23;10.43;;;0.60;64.60;;;;;;4821346;29;20043;-91
2023/11/29 12:11:11;;;;;;;32.13;10.95;;;0.70;64.70;;;;;;4817686;29;20082;-91
2023/11/29 12:13:39;;;;;;;24.67;10.15;;;0.90;64.70;;;;;;4824519;29;20047;-91
2023/11/29 12:16:14;;;;;;;28.88;10.30;;;0.90;64.30;;;;;;4821121;29;20065;-91
2023/11/29 12:18:41;;;;;;;27.95;10.55;;;1.00;64.00;;;;;;4810398;29;20051;-91
2023/11/29 12:21:08;;;;;;;29.93;11.33;;;0.90;63.30;;;;;;4807277;29;20142;-91
2023/11/29 12:23:41;;;;;;;27.60;11.05;;;0.90;63.90;;;;;;4820652;29;20086;-90
2023/11/29 12:26:13;;;;;;;23.98;9.38;;;1.00;64.00;;;;;;4817379;29;20058;-91
2023/11/29 12:28:41;;;;;;;30.75;10.98;;;1.00;63.50;;;;;;4819976;29;20141;-92
2023/11/29 12:31:12;;;;;;;26.83;10.90;;;0.90;64.00;;;;;;4813035;29;20107;-95
2023/11/29 12:34:42;;;;;;;24.03;9.90;;;0.90;64.20;;;;;;4826013;29;20509;-93
2023/11/29 12:37:18;;;;;;;25.40;10.10;;;0.80;64.20;;;;;;4758781;30;20044;-92